sensor_id;sensor_type;location;lat;lon;timestamp;P1;durP1;ratioP1;P2;durP2;ratioP2
12155;SDS011;6141;49.092;8.516;2022-10-16T00:03:59;5.53;;;1.40;;
12155;SDS011;6141;49.092;8.516;2022-10-16T00:06:29;3.37;;;1.20;;
12155;SDS011;6141;49.092;8.516;2022-10-16T00:08:58;6.40;;;1.50;;
12155;SDS011;6141;49.092;8.516;2022-10-16T00:11:29;4.07;;;1.20;;
12155;SDS011;6141;49.092;8.516;2022-10-16T00:14:06;3.20;;;1.13;;
12155;SDS011;6141;49.092;8.516;2022-10-16T00:16:38;8.60;;;1.43;;
12155;SDS011;6141;49.092;8.516;2022-10-16T00:19:12;5.03;;;1.23;;
12155;SDS011;6141;49.092;8.516;2022-10-16T00:22:25;1.40;;;1.17;;
12155;SDS011;6141;49.092;8.516;2022-10-16T00:26:15;2.93;;;1.50;;
12155;SDS011;6141;49.092;8.516;2022-10-16T01:40:07;13.30;;;1.97;;
12155;SDS011;6141;49.092;8.516;2022-10-16T01:55:30;13.20;;;1.50;;
12155;SDS011;6141;49.092;8.516;2022-10-16T01:58:15;7.60;;;1.40;;
12155;SDS011;6141;49.092;8.516;2022-10-16T02:00:44;9.40;;;1.60;;
12155;SDS011;6141;49.092;8.516;2022-10-16T02:03:14;8.80;;;1.90;;
12155;SDS011;6141;49.092;8.516;2022-10-16T02:05:46;8.10;;;1.60;;
12155;SDS011;6141;49.092;8.516;2022-10-16T02:08:18;6.50;;;1.37;;
12155;SDS011;6141;49.092;8.516;2022-10-16T02:10:48;6.87;;;1.37;;
12155;SDS011;6141;49.092;8.516;2022-10-16T02:13:19;7.27;;;1.30;;
12155;SDS011;6141;49.092;8.516;2022-10-16T02:15:59;9.97;;;1.60;;
12155;SDS011;6141;49.092;8.516;2022-10-16T02:18:28;6.13;;;1.20;;
12155;SDS011;6141;49.092;8.516;2022-10-16T02:20:58;7.87;;;1.40;;
12155;SDS011;6141;49.092;8.516;2022-10-16T02:23:30;5.30;;;1.40;;
12155;SDS011;6141;49.092;8.516;2022-10-16T02:26:07;6.00;;;1.40;;
12155;SDS011;6141;49.092;8.516;2022-10-16T02:28:42;4.20;;;1.40;;
12155;SDS011;6141;49.092;8.516;2022-10-16T02:31:16;2.07;;;1.00;;
12155;SDS011;6141;49.092;8.516;2022-10-16T02:37:01;6.10;;;1.30;;
12155;SDS011;6141;49.092;8.516;2022-10-16T02:39:37;3.83;;;1.20;;
12155;SDS011;6141;49.092;8.516;2022-10-16T02:42:11;2.87;;;1.10;;
12155;SDS011;6141;49.092;8.516;2022-10-16T02:44:40;7.23;;;0.93;;
12155;SDS011;6141;49.092;8.516;2022-10-16T02:47:09;5.17;;;0.90;;
12155;SDS011;6141;49.092;8.516;2022-10-16T02:49:39;3.43;;;1.00;;
12155;SDS011;6141;49.092;8.516;2022-10-16T02:52:12;5.37;;;1.00;;
12155;SDS011;6141;49.092;8.516;2022-10-16T02:54:41;5.20;;;1.13;;
12155;SDS011;6141;49.092;8.516;2022-10-16T02:57:11;3.67;;;0.90;;
12155;SDS011;6141;49.092;8.516;2022-10-16T02:59:40;5.43;;;1.17;;
12155;SDS011;6141;49.092;8.516;2022-10-16T03:02:09;5.03;;;1.10;;
12155;SDS011;6141;49.092;8.516;2022-10-16T03:04:43;3.10;;;1.30;;
12155;SDS011;6141;49.092;8.516;2022-10-16T03:07:14;6.60;;;1.40;;
12155;SDS011;6141;49.092;8.516;2022-10-16T03:09:43;3.37;;;1.20;;
12155;SDS011;6141;49.092;8.516;2022-10-16T03:12:14;6.07;;;1.40;;
12155;SDS011;6141;49.092;8.516;2022-10-16T03:14:43;6.10;;;1.53;;
12155;SDS011;6141;49.092;8.516;2022-10-16T03:17:11;8.57;;;1.60;;
12155;SDS011;6141;49.092;8.516;2022-10-16T03:19:43;4.10;;;1.13;;
12155;SDS011;6141;49.092;8.516;2022-10-16T03:22:11;2.90;;;1.10;;
12155;SDS011;6141;49.092;8.516;2022-10-16T03:24:39;6.10;;;1.30;;
12155;SDS011;6141;49.092;8.516;2022-10-16T03:27:10;7.60;;;1.27;;
12155;SDS011;6141;49.092;8.516;2022-10-16T03:29:40;6.87;;;1.17;;
12155;SDS011;6141;49.092;8.516;2022-10-16T03:32:09;7.00;;;1.20;;
12155;SDS011;6141;49.092;8.516;2022-10-16T03:34:38;5.43;;;1.30;;
12155;SDS011;6141;49.092;8.516;2022-10-16T03:37:06;3.73;;;1.07;;
12155;SDS011;6141;49.092;8.516;2022-10-16T03:39:35;6.47;;;1.73;;
12155;SDS011;6141;49.092;8.516;2022-10-16T03:42:03;3.50;;;1.00;;
12155;SDS011;6141;49.092;8.516;2022-10-16T03:44:33;3.93;;;0.93;;
12155;SDS011;6141;49.092;8.516;2022-10-16T03:47:01;7.77;;;1.50;;
12155;SDS011;6141;49.092;8.516;2022-10-16T03:49:29;3.93;;;1.00;;
12155;SDS011;6141;49.092;8.516;2022-10-16T03:51:57;5.63;;;1.30;;
12155;SDS011;6141;49.092;8.516;2022-10-16T03:54:26;2.87;;;0.93;;
12155;SDS011;6141;49.092;8.516;2022-10-16T03:56:54;3.17;;;1.10;;
12155;SDS011;6141;49.092;8.516;2022-10-16T03:59:22;1.57;;;1.03;;
12155;SDS011;6141;49.092;8.516;2022-10-16T04:01:52;5.13;;;1.33;;
12155;SDS011;6141;49.092;8.516;2022-10-16T04:04:21;4.50;;;1.30;;
12155;SDS011;6141;49.092;8.516;2022-10-16T04:06:49;3.23;;;1.27;;
12155;SDS011;6141;49.092;8.516;2022-10-16T04:09:17;4.67;;;1.30;;
12155;SDS011;6141;49.092;8.516;2022-10-16T04:11:45;4.63;;;1.10;;
12155;SDS011;6141;49.092;8.516;2022-10-16T04:14:14;2.43;;;1.27;;
12155;SDS011;6141;49.092;8.516;2022-10-16T04:16:42;2.97;;;0.90;;
12155;SDS011;6141;49.092;8.516;2022-10-16T04:19:12;4.57;;;1.20;;
12155;SDS011;6141;49.092;8.516;2022-10-16T04:21:40;6.40;;;1.03;;
12155;SDS011;6141;49.092;8.516;2022-10-16T04:24:08;5.07;;;1.30;;
12155;SDS011;6141;49.092;8.516;2022-10-16T04:26:39;6.67;;;1.50;;
12155;SDS011;6141;49.092;8.516;2022-10-16T04:29:08;4.30;;;1.13;;
12155;SDS011;6141;49.092;8.516;2022-10-16T04:31:36;3.77;;;1.00;;
12155;SDS011;6141;49.092;8.516;2022-10-16T04:34:04;3.70;;;1.10;;
12155;SDS011;6141;49.092;8.516;2022-10-16T04:36:34;3.37;;;1.00;;
12155;SDS011;6141;49.092;8.516;2022-10-16T04:39:02;4.03;;;1.23;;
12155;SDS011;6141;49.092;8.516;2022-10-16T04:41:30;5.83;;;1.23;;
12155;SDS011;6141;49.092;8.516;2022-10-16T04:43:59;14.50;;;1.53;;
12155;SDS011;6141;49.092;8.516;2022-10-16T04:46:27;8.07;;;2.10;;
12155;SDS011;6141;49.092;8.516;2022-10-16T04:48:55;6.43;;;1.10;;
12155;SDS011;6141;49.092;8.516;2022-10-16T04:51:24;4.83;;;1.10;;
12155;SDS011;6141;49.092;8.516;2022-10-16T04:53:54;3.53;;;1.10;;
12155;SDS011;6141;49.092;8.516;2022-10-16T04:56:23;5.60;;;1.50;;
12155;SDS011;6141;49.092;8.516;2022-10-16T04:58:51;6.87;;;1.60;;
12155;SDS011;6141;49.092;8.516;2022-10-16T05:01:19;8.93;;;1.50;;
12155;SDS011;6141;49.092;8.516;2022-10-16T05:03:47;8.00;;;1.33;;
12155;SDS011;6141;49.092;8.516;2022-10-16T05:06:16;4.27;;;1.30;;
12155;SDS011;6141;49.092;8.516;2022-10-16T05:08:44;4.07;;;1.20;;
12155;SDS011;6141;49.092;8.516;2022-10-16T05:11:13;7.83;;;1.50;;
12155;SDS011;6141;49.092;8.516;2022-10-16T05:13:42;10.80;;;1.70;;
12155;SDS011;6141;49.092;8.516;2022-10-16T05:16:10;6.10;;;1.57;;
12155;SDS011;6141;49.092;8.516;2022-10-16T05:18:38;8.47;;;1.30;;
12155;SDS011;6141;49.092;8.516;2022-10-16T05:21:06;5.17;;;1.20;;
12155;SDS011;6141;49.092;8.516;2022-10-16T05:23:35;5.10;;;1.47;;
12155;SDS011;6141;49.092;8.516;2022-10-16T05:26:03;5.70;;;1.40;;
12155;SDS011;6141;49.092;8.516;2022-10-16T05:28:34;5.93;;;1.10;;
12155;SDS011;6141;49.092;8.516;2022-10-16T05:31:04;5.37;;;1.27;;
12155;SDS011;6141;49.092;8.516;2022-10-16T05:33:33;5.67;;;1.23;;
12155;SDS011;6141;49.092;8.516;2022-10-16T05:36:02;4.77;;;1.47;;
12155;SDS011;6141;49.092;8.516;2022-10-16T05:38:31;7.00;;;1.43;;
12155;SDS011;6141;49.092;8.516;2022-10-16T05:40:59;4.83;;;1.10;;
12155;SDS011;6141;49.092;8.516;2022-10-16T05:43:27;5.80;;;1.20;;
12155;SDS011;6141;49.092;8.516;2022-10-16T05:45:58;4.80;;;1.17;;
12155;SDS011;6141;49.092;8.516;2022-10-16T05:48:28;8.20;;;1.40;;
12155;SDS011;6141;49.092;8.516;2022-10-16T05:50:57;4.40;;;1.10;;
12155;SDS011;6141;49.092;8.516;2022-10-16T05:53:26;3.73;;;1.30;;
12155;SDS011;6141;49.092;8.516;2022-10-16T05:55:55;3.20;;;1.27;;
12155;SDS011;6141;49.092;8.516;2022-10-16T05:58:24;5.97;;;1.13;;
12155;SDS011;6141;49.092;8.516;2022-10-16T06:00:58;2.27;;;1.43;;
12155;SDS011;6141;49.092;8.516;2022-10-16T06:03:28;5.47;;;1.20;;
12155;SDS011;6141;49.092;8.516;2022-10-16T06:05:56;12.33;;;1.40;;
12155;SDS011;6141;49.092;8.516;2022-10-16T06:08:25;5.27;;;1.30;;
12155;SDS011;6141;49.092;8.516;2022-10-16T06:11:00;6.43;;;1.60;;
12155;SDS011;6141;49.092;8.516;2022-10-16T06:13:29;4.47;;;1.40;;
12155;SDS011;6141;49.092;8.516;2022-10-16T06:16:00;7.77;;;1.60;;
12155;SDS011;6141;49.092;8.516;2022-10-16T06:18:29;3.97;;;1.73;;
12155;SDS011;6141;49.092;8.516;2022-10-16T06:20:57;6.77;;;1.57;;
12155;SDS011;6141;49.092;8.516;2022-10-16T06:23:28;6.90;;;2.00;;
12155;SDS011;6141;49.092;8.516;2022-10-16T06:26:03;3.50;;;1.50;;
12155;SDS011;6141;49.092;8.516;2022-10-16T06:28:32;4.20;;;1.80;;
12155;SDS011;6141;49.092;8.516;2022-10-16T06:31:03;7.63;;;1.80;;
12155;SDS011;6141;49.092;8.516;2022-10-16T06:33:37;6.27;;;1.70;;
12155;SDS011;6141;49.092;8.516;2022-10-16T06:36:06;6.77;;;1.47;;
12155;SDS011;6141;49.092;8.516;2022-10-16T06:38:36;6.43;;;1.80;;
12155;SDS011;6141;49.092;8.516;2022-10-16T06:41:05;10.00;;;1.60;;
12155;SDS011;6141;49.092;8.516;2022-10-16T06:43:34;5.10;;;1.80;;
12155;SDS011;6141;49.092;8.516;2022-10-16T06:46:05;7.43;;;1.70;;
12155;SDS011;6141;49.092;8.516;2022-10-16T06:48:34;4.73;;;1.80;;
12155;SDS011;6141;49.092;8.516;2022-10-16T06:51:03;5.93;;;1.70;;
12155;SDS011;6141;49.092;8.516;2022-10-16T06:53:33;5.27;;;1.57;;
12155;SDS011;6141;49.092;8.516;2022-10-16T06:56:20;2.60;;;1.50;;
12155;SDS011;6141;49.092;8.516;2022-10-16T06:58:50;8.03;;;1.80;;
12155;SDS011;6141;49.092;8.516;2022-10-16T07:01:20;3.40;;;1.53;;
12155;SDS011;6141;49.092;8.516;2022-10-16T07:03:49;11.00;;;1.93;;
12155;SDS011;6141;49.092;8.516;2022-10-16T07:06:18;8.63;;;1.80;;
12155;SDS011;6141;49.092;8.516;2022-10-16T07:08:48;5.93;;;1.70;;
12155;SDS011;6141;49.092;8.516;2022-10-16T07:11:17;6.37;;;1.50;;
12155;SDS011;6141;49.092;8.516;2022-10-16T07:13:47;7.90;;;1.60;;
12155;SDS011;6141;49.092;8.516;2022-10-16T07:16:22;5.20;;;1.60;;
12155;SDS011;6141;49.092;8.516;2022-10-16T07:18:53;6.73;;;1.50;;
12155;SDS011;6141;49.092;8.516;2022-10-16T07:21:25;4.93;;;1.57;;
12155;SDS011;6141;49.092;8.516;2022-10-16T07:23:55;4.33;;;1.80;;
12155;SDS011;6141;49.092;8.516;2022-10-16T07:26:25;7.23;;;1.53;;
12155;SDS011;6141;49.092;8.516;2022-10-16T07:28:55;5.60;;;1.67;;
12155;SDS011;6141;49.092;8.516;2022-10-16T07:31:25;3.63;;;1.30;;
12155;SDS011;6141;49.092;8.516;2022-10-16T07:33:53;3.37;;;1.40;;
12155;SDS011;6141;49.092;8.516;2022-10-16T07:36:22;7.40;;;1.57;;
12155;SDS011;6141;49.092;8.516;2022-10-16T07:38:50;6.07;;;1.67;;
12155;SDS011;6141;49.092;8.516;2022-10-16T07:41:24;6.00;;;1.50;;
12155;SDS011;6141;49.092;8.516;2022-10-16T07:43:52;3.73;;;1.40;;
12155;SDS011;6141;49.092;8.516;2022-10-16T07:46:21;5.90;;;1.67;;
12155;SDS011;6141;49.092;8.516;2022-10-16T07:48:51;3.87;;;1.57;;
12155;SDS011;6141;49.092;8.516;2022-10-16T07:51:20;2.67;;;1.63;;
12155;SDS011;6141;49.092;8.516;2022-10-16T07:53:50;4.50;;;1.40;;
12155;SDS011;6141;49.092;8.516;2022-10-16T07:56:19;4.93;;;1.33;;
12155;SDS011;6141;49.092;8.516;2022-10-16T07:58:48;5.03;;;1.40;;
12155;SDS011;6141;49.092;8.516;2022-10-16T08:01:17;3.00;;;1.50;;
12155;SDS011;6141;49.092;8.516;2022-10-16T08:03:49;2.67;;;1.30;;
12155;SDS011;6141;49.092;8.516;2022-10-16T08:06:20;6.43;;;1.50;;
12155;SDS011;6141;49.092;8.516;2022-10-16T08:08:53;3.70;;;1.60;;
12155;SDS011;6141;49.092;8.516;2022-10-16T08:11:22;2.73;;;1.23;;
12155;SDS011;6141;49.092;8.516;2022-10-16T08:13:51;3.87;;;1.30;;
12155;SDS011;6141;49.092;8.516;2022-10-16T08:16:21;4.60;;;1.60;;
12155;SDS011;6141;49.092;8.516;2022-10-16T08:18:49;3.30;;;1.50;;
12155;SDS011;6141;49.092;8.516;2022-10-16T08:21:22;4.53;;;1.77;;
12155;SDS011;6141;49.092;8.516;2022-10-16T08:23:52;2.37;;;1.40;;
12155;SDS011;6141;49.092;8.516;2022-10-16T08:26:24;6.57;;;1.30;;
12155;SDS011;6141;49.092;8.516;2022-10-16T08:28:53;5.70;;;1.57;;
12155;SDS011;6141;49.092;8.516;2022-10-16T08:31:25;6.60;;;1.50;;
12155;SDS011;6141;49.092;8.516;2022-10-16T08:33:53;2.93;;;1.50;;
12155;SDS011;6141;49.092;8.516;2022-10-16T08:36:23;3.87;;;1.50;;
12155;SDS011;6141;49.092;8.516;2022-10-16T08:38:54;6.13;;;1.50;;
12155;SDS011;6141;49.092;8.516;2022-10-16T08:41:27;5.57;;;1.70;;
12155;SDS011;6141;49.092;8.516;2022-10-16T08:44:08;2.47;;;1.47;;
12155;SDS011;6141;49.092;8.516;2022-10-16T08:46:59;3.30;;;2.10;;
12155;SDS011;6141;49.092;8.516;2022-10-16T08:49:32;6.47;;;1.90;;
12155;SDS011;6141;49.092;8.516;2022-10-16T08:52:04;3.27;;;1.60;;
12155;SDS011;6141;49.092;8.516;2022-10-16T08:54:39;3.40;;;1.50;;
12155;SDS011;6141;49.092;8.516;2022-10-16T08:57:12;4.20;;;1.73;;
12155;SDS011;6141;49.092;8.516;2022-10-16T08:59:49;3.63;;;1.60;;
12155;SDS011;6141;49.092;8.516;2022-10-16T09:02:23;3.33;;;1.60;;
12155;SDS011;6141;49.092;8.516;2022-10-16T09:07:56;4.73;;;1.60;;
12155;SDS011;6141;49.092;8.516;2022-10-16T09:10:41;3.13;;;1.50;;
12155;SDS011;6141;49.092;8.516;2022-10-16T09:13:21;3.03;;;1.50;;
12155;SDS011;6141;49.092;8.516;2022-10-16T09:15:57;3.10;;;1.77;;
12155;SDS011;6141;49.092;8.516;2022-10-16T09:18:32;4.10;;;1.43;;
12155;SDS011;6141;49.092;8.516;2022-10-16T09:21:09;5.53;;;1.63;;
12155;SDS011;6141;49.092;8.516;2022-10-16T09:23:44;2.50;;;1.50;;
12155;SDS011;6141;49.092;8.516;2022-10-16T09:26:14;3.60;;;1.80;;
12155;SDS011;6141;49.092;8.516;2022-10-16T09:29:03;2.80;;;1.70;;
12155;SDS011;6141;49.092;8.516;2022-10-16T09:32:59;8.43;;;1.90;;
12155;SDS011;6141;49.092;8.516;2022-10-16T09:35:31;5.30;;;1.67;;
12155;SDS011;6141;49.092;8.516;2022-10-16T09:38:03;4.90;;;1.70;;
12155;SDS011;6141;49.092;8.516;2022-10-16T09:40:35;5.07;;;1.50;;
12155;SDS011;6141;49.092;8.516;2022-10-16T09:43:12;4.57;;;1.80;;
12155;SDS011;6141;49.092;8.516;2022-10-16T09:45:55;5.50;;;1.60;;
12155;SDS011;6141;49.092;8.516;2022-10-16T09:48:27;4.53;;;1.53;;
12155;SDS011;6141;49.092;8.516;2022-10-16T09:51:03;6.83;;;1.77;;
12155;SDS011;6141;49.092;8.516;2022-10-16T09:53:40;3.00;;;1.50;;
12155;SDS011;6141;49.092;8.516;2022-10-16T09:56:21;4.23;;;1.50;;
12155;SDS011;6141;49.092;8.516;2022-10-16T09:58:51;2.30;;;1.47;;
12155;SDS011;6141;49.092;8.516;2022-10-16T10:01:28;3.27;;;1.60;;
12155;SDS011;6141;49.092;8.516;2022-10-16T10:04:07;5.77;;;1.70;;
12155;SDS011;6141;49.092;8.516;2022-10-16T10:06:43;3.67;;;1.80;;
12155;SDS011;6141;49.092;8.516;2022-10-16T10:09:16;5.03;;;1.90;;
12155;SDS011;6141;49.092;8.516;2022-10-16T10:11:50;5.63;;;1.60;;
12155;SDS011;6141;49.092;8.516;2022-10-16T10:14:34;4.53;;;1.70;;
12155;SDS011;6141;49.092;8.516;2022-10-16T11:35:36;3.37;;;1.60;;
12155;SDS011;6141;49.092;8.516;2022-10-16T12:07:46;3.97;;;1.67;;
12155;SDS011;6141;49.092;8.516;2022-10-16T14:03:17;7.33;;;1.60;;
12155;SDS011;6141;49.092;8.516;2022-10-16T16:10:17;5.10;;;1.87;;
12155;SDS011;6141;49.092;8.516;2022-10-16T16:44:46;6.93;;;1.93;;
12155;SDS011;6141;49.092;8.516;2022-10-16T16:47:15;3.97;;;2.17;;
12155;SDS011;6141;49.092;8.516;2022-10-16T16:49:51;5.20;;;2.30;;
12155;SDS011;6141;49.092;8.516;2022-10-16T16:52:30;6.07;;;2.40;;
12155;SDS011;6141;49.092;8.516;2022-10-16T16:55:27;10.27;;;3.77;;
12155;SDS011;6141;49.092;8.516;2022-10-16T16:57:59;9.30;;;3.67;;
12155;SDS011;6141;49.092;8.516;2022-10-16T17:00:30;7.67;;;4.27;;
12155;SDS011;6141;49.092;8.516;2022-10-16T17:03:01;7.37;;;4.17;;
12155;SDS011;6141;49.092;8.516;2022-10-16T17:05:32;15.03;;;4.17;;
12155;SDS011;6141;49.092;8.516;2022-10-16T17:08:01;5.63;;;3.47;;
12155;SDS011;6141;49.092;8.516;2022-10-16T17:10:30;8.65;;;2.50;;
12155;SDS011;6141;49.092;8.516;2022-10-16T17:13:08;8.50;;;3.73;;
12155;SDS011;6141;49.092;8.516;2022-10-16T17:15:49;7.33;;;3.70;;
12155;SDS011;6141;49.092;8.516;2022-10-16T17:30:46;8.13;;;2.13;;
12155;SDS011;6141;49.092;8.516;2022-10-16T17:34:33;9.03;;;2.30;;
12155;SDS011;6141;49.092;8.516;2022-10-16T17:37:08;4.80;;;2.13;;
12155;SDS011;6141;49.092;8.516;2022-10-16T17:39:47;3.23;;;2.10;;
12155;SDS011;6141;49.092;8.516;2022-10-16T17:42:22;6.10;;;2.20;;
12155;SDS011;6141;49.092;8.516;2022-10-16T17:45:56;11.97;;;2.60;;
12155;SDS011;6141;49.092;8.516;2022-10-16T17:48:59;6.73;;;2.33;;
12155;SDS011;6141;49.092;8.516;2022-10-16T17:51:33;12.87;;;2.63;;
12155;SDS011;6141;49.092;8.516;2022-10-16T17:54:02;6.77;;;2.13;;
12155;SDS011;6141;49.092;8.516;2022-10-16T17:56:31;14.27;;;2.33;;
12155;SDS011;6141;49.092;8.516;2022-10-16T17:59:02;11.33;;;2.53;;
12155;SDS011;6141;49.092;8.516;2022-10-16T18:01:40;6.63;;;2.70;;
12155;SDS011;6141;49.092;8.516;2022-10-16T18:05:31;8.93;;;2.73;;
12155;SDS011;6141;49.092;8.516;2022-10-16T18:09:26;8.40;;;2.40;;
12155;SDS011;6141;49.092;8.516;2022-10-16T18:12:24;7.90;;;2.30;;
12155;SDS011;6141;49.092;8.516;2022-10-16T18:15:18;10.57;;;2.40;;
12155;SDS011;6141;49.092;8.516;2022-10-16T18:17:49;3.33;;;1.90;;
12155;SDS011;6141;49.092;8.516;2022-10-16T18:20:54;11.83;;;2.20;;
12155;SDS011;6141;49.092;8.516;2022-10-16T18:23:24;8.93;;;2.43;;
12155;SDS011;6141;49.092;8.516;2022-10-16T18:25:57;8.60;;;2.10;;
12155;SDS011;6141;49.092;8.516;2022-10-16T18:28:32;5.93;;;1.97;;
12155;SDS011;6141;49.092;8.516;2022-10-16T18:31:19;4.20;;;1.83;;
12155;SDS011;6141;49.092;8.516;2022-10-16T18:35:00;8.30;;;2.30;;
12155;SDS011;6141;49.092;8.516;2022-10-16T18:37:52;4.50;;;2.00;;
12155;SDS011;6141;49.092;8.516;2022-10-16T18:40:36;11.03;;;2.30;;
12155;SDS011;6141;49.092;8.516;2022-10-16T18:43:08;13.17;;;2.30;;
12155;SDS011;6141;49.092;8.516;2022-10-16T18:45:40;5.60;;;2.10;;
12155;SDS011;6141;49.092;8.516;2022-10-16T18:48:15;6.83;;;2.50;;
12155;SDS011;6141;49.092;8.516;2022-10-16T18:50:44;11.50;;;2.47;;
12155;SDS011;6141;49.092;8.516;2022-10-16T18:53:12;7.00;;;2.40;;
12155;SDS011;6141;49.092;8.516;2022-10-16T18:55:41;4.57;;;2.17;;
12155;SDS011;6141;49.092;8.516;2022-10-16T18:58:17;4.47;;;2.00;;
12155;SDS011;6141;49.092;8.516;2022-10-16T19:00:46;6.30;;;2.30;;
12155;SDS011;6141;49.092;8.516;2022-10-16T19:03:17;6.23;;;2.43;;
12155;SDS011;6141;49.092;8.516;2022-10-16T19:05:50;4.37;;;2.83;;
12155;SDS011;6141;49.092;8.516;2022-10-16T19:08:22;6.53;;;2.73;;
12155;SDS011;6141;49.092;8.516;2022-10-16T19:10:53;3.70;;;2.80;;
12155;SDS011;6141;49.092;8.516;2022-10-16T19:13:31;5.53;;;2.67;;
12155;SDS011;6141;49.092;8.516;2022-10-16T19:16:12;6.63;;;3.20;;
12155;SDS011;6141;49.092;8.516;2022-10-16T19:18:47;6.30;;;2.83;;
12155;SDS011;6141;49.092;8.516;2022-10-16T19:21:17;6.23;;;2.73;;
12155;SDS011;6141;49.092;8.516;2022-10-16T19:23:49;5.80;;;2.47;;
12155;SDS011;6141;49.092;8.516;2022-10-16T19:26:20;4.40;;;2.87;;
12155;SDS011;6141;49.092;8.516;2022-10-16T19:29:06;6.90;;;2.77;;
12155;SDS011;6141;49.092;8.516;2022-10-16T19:31:52;4.83;;;2.70;;
12155;SDS011;6141;49.092;8.516;2022-10-16T19:34:22;7.17;;;2.50;;
12155;SDS011;6141;49.092;8.516;2022-10-16T19:36:56;7.10;;;2.70;;
12155;SDS011;6141;49.092;8.516;2022-10-16T19:39:29;6.17;;;2.60;;
12155;SDS011;6141;49.092;8.516;2022-10-16T19:41:58;9.33;;;4.70;;
12155;SDS011;6141;49.092;8.516;2022-10-16T19:44:30;7.83;;;5.53;;
12155;SDS011;6141;49.092;8.516;2022-10-16T19:46:59;6.37;;;3.87;;
12155;SDS011;6141;49.092;8.516;2022-10-16T19:49:31;5.17;;;3.77;;
12155;SDS011;6141;49.092;8.516;2022-10-16T19:52:00;9.70;;;3.50;;
12155;SDS011;6141;49.092;8.516;2022-10-16T19:54:49;10.23;;;4.10;;
12155;SDS011;6141;49.092;8.516;2022-10-16T19:57:20;4.13;;;3.67;;
12155;SDS011;6141;49.092;8.516;2022-10-16T19:59:51;6.20;;;3.57;;
12155;SDS011;6141;49.092;8.516;2022-10-16T20:02:22;8.13;;;3.50;;
12155;SDS011;6141;49.092;8.516;2022-10-16T20:04:55;5.13;;;3.50;;
12155;SDS011;6141;49.092;8.516;2022-10-16T20:07:26;3.70;;;3.10;;
12155;SDS011;6141;49.092;8.516;2022-10-16T20:10:00;10.90;;;3.77;;
12155;SDS011;6141;49.092;8.516;2022-10-16T20:12:34;8.17;;;2.93;;
12155;SDS011;6141;49.092;8.516;2022-10-16T20:15:12;5.83;;;2.60;;
12155;SDS011;6141;49.092;8.516;2022-10-16T20:17:48;4.67;;;2.87;;
12155;SDS011;6141;49.092;8.516;2022-10-16T20:20:29;5.13;;;2.70;;
12155;SDS011;6141;49.092;8.516;2022-10-16T20:23:00;9.07;;;3.03;;
12155;SDS011;6141;49.092;8.516;2022-10-16T20:25:33;6.87;;;3.13;;
12155;SDS011;6141;49.092;8.516;2022-10-16T20:28:02;6.13;;;2.67;;
12155;SDS011;6141;49.092;8.516;2022-10-16T20:30:40;5.93;;;2.80;;
12155;SDS011;6141;49.092;8.516;2022-10-16T20:33:10;4.00;;;2.87;;
12155;SDS011;6141;49.092;8.516;2022-10-16T20:35:49;4.40;;;2.80;;
12155;SDS011;6141;49.092;8.516;2022-10-16T20:38:18;8.40;;;2.63;;
12155;SDS011;6141;49.092;8.516;2022-10-16T20:41:01;9.17;;;2.30;;
12155;SDS011;6141;49.092;8.516;2022-10-16T20:43:32;8.13;;;3.00;;
12155;SDS011;6141;49.092;8.516;2022-10-16T20:46:08;8.83;;;2.77;;
12155;SDS011;6141;49.092;8.516;2022-10-16T20:48:41;4.47;;;3.00;;
12155;SDS011;6141;49.092;8.516;2022-10-16T20:51:16;3.60;;;3.20;;
12155;SDS011;6141;49.092;8.516;2022-10-16T20:54:03;8.37;;;3.20;;
12155;SDS011;6141;49.092;8.516;2022-10-16T20:56:34;7.57;;;3.40;;
12155;SDS011;6141;49.092;8.516;2022-10-16T21:03:03;5.43;;;3.10;;
12155;SDS011;6141;49.092;8.516;2022-10-16T21:05:41;7.60;;;3.50;;
12155;SDS011;6141;49.092;8.516;2022-10-16T21:08:16;7.63;;;3.20;;
12155;SDS011;6141;49.092;8.516;2022-10-16T21:10:49;5.77;;;3.00;;
12155;SDS011;6141;49.092;8.516;2022-10-16T21:13:22;5.43;;;2.83;;
12155;SDS011;6141;49.092;8.516;2022-10-16T21:15:56;8.40;;;3.40;;
12155;SDS011;6141;49.092;8.516;2022-10-16T21:22:44;9.47;;;2.73;;
12155;SDS011;6141;49.092;8.516;2022-10-16T21:25:47;4.73;;;2.93;;
12155;SDS011;6141;49.092;8.516;2022-10-16T21:28:22;7.50;;;2.57;;
12155;SDS011;6141;49.092;8.516;2022-10-16T21:31:09;5.00;;;2.73;;
12155;SDS011;6141;49.092;8.516;2022-10-16T21:33:59;5.90;;;2.40;;
12155;SDS011;6141;49.092;8.516;2022-10-16T21:37:00;9.97;;;2.40;;
12155;SDS011;6141;49.092;8.516;2022-10-16T21:39:58;5.20;;;2.10;;
12155;SDS011;6141;49.092;8.516;2022-10-16T21:42:36;3.90;;;2.07;;
12155;SDS011;6141;49.092;8.516;2022-10-16T21:45:14;5.73;;;2.50;;
12155;SDS011;6141;49.092;8.516;2022-10-16T21:47:56;4.70;;;2.23;;
12155;SDS011;6141;49.092;8.516;2022-10-16T21:50:46;7.03;;;2.43;;
12155;SDS011;6141;49.092;8.516;2022-10-16T21:53:33;5.90;;;1.97;;
12155;SDS011;6141;49.092;8.516;2022-10-16T21:56:15;3.80;;;2.10;;
12155;SDS011;6141;49.092;8.516;2022-10-16T21:58:57;2.53;;;1.67;;
12155;SDS011;6141;49.092;8.516;2022-10-16T22:01:51;7.03;;;2.40;;
12155;SDS011;6141;49.092;8.516;2022-10-16T22:04:28;4.23;;;2.23;;
12155;SDS011;6141;49.092;8.516;2022-10-16T22:06:59;5.17;;;2.10;;
12155;SDS011;6141;49.092;8.516;2022-10-16T22:09:32;6.10;;;2.30;;
12155;SDS011;6141;49.092;8.516;2022-10-16T22:12:16;6.53;;;2.30;;
12155;SDS011;6141;49.092;8.516;2022-10-16T22:15:03;11.20;;;2.20;;
12155;SDS011;6141;49.092;8.516;2022-10-16T22:18:04;8.80;;;2.13;;
12155;SDS011;6141;49.092;8.516;2022-10-16T22:20:46;8.00;;;2.60;;
12155;SDS011;6141;49.092;8.516;2022-10-16T22:23:23;10.43;;;2.63;;
12155;SDS011;6141;49.092;8.516;2022-10-16T22:26:32;6.80;;;2.67;;
12155;SDS011;6141;49.092;8.516;2022-10-16T22:29:42;9.93;;;3.17;;
12155;SDS011;6141;49.092;8.516;2022-10-16T22:32:21;7.87;;;2.40;;
12155;SDS011;6141;49.092;8.516;2022-10-16T22:35:02;8.80;;;2.40;;
12155;SDS011;6141;49.092;8.516;2022-10-16T22:37:43;4.87;;;2.20;;
12155;SDS011;6141;49.092;8.516;2022-10-16T22:40:11;7.67;;;2.40;;
12155;SDS011;6141;49.092;8.516;2022-10-16T22:42:48;6.27;;;2.40;;
12155;SDS011;6141;49.092;8.516;2022-10-16T22:45:24;5.53;;;2.13;;
12155;SDS011;6141;49.092;8.516;2022-10-16T22:48:03;11.13;;;3.10;;
12155;SDS011;6141;49.092;8.516;2022-10-16T22:50:42;9.17;;;2.60;;
12155;SDS011;6141;49.092;8.516;2022-10-16T22:53:34;7.27;;;2.50;;
12155;SDS011;6141;49.092;8.516;2022-10-16T22:56:18;9.57;;;2.73;;
12155;SDS011;6141;49.092;8.516;2022-10-16T22:59:00;9.83;;;2.07;;
12155;SDS011;6141;49.092;8.516;2022-10-16T23:01:39;7.40;;;2.60;;
12155;SDS011;6141;49.092;8.516;2022-10-16T23:04:12;2.67;;;1.73;;
12155;SDS011;6141;49.092;8.516;2022-10-16T23:06:47;6.30;;;2.03;;
12155;SDS011;6141;49.092;8.516;2022-10-16T23:09:29;5.50;;;2.27;;
12155;SDS011;6141;49.092;8.516;2022-10-16T23:12:18;9.57;;;2.63;;
12155;SDS011;6141;49.092;8.516;2022-10-16T23:14:57;9.50;;;2.47;;
12155;SDS011;6141;49.092;8.516;2022-10-16T23:17:37;10.77;;;2.60;;
12155;SDS011;6141;49.092;8.516;2022-10-16T23:20:10;8.20;;;2.23;;
12155;SDS011;6141;49.092;8.516;2022-10-16T23:22:48;6.47;;;1.80;;
12155;SDS011;6141;49.092;8.516;2022-10-16T23:25:20;6.00;;;1.70;;
12155;SDS011;6141;49.092;8.516;2022-10-16T23:28:14;5.17;;;1.50;;
12155;SDS011;6141;49.092;8.516;2022-10-16T23:30:56;5.23;;;1.70;;
12155;SDS011;6141;49.092;8.516;2022-10-16T23:33:40;6.67;;;1.80;;
12155;SDS011;6141;49.092;8.516;2022-10-16T23:36:36;5.70;;;2.00;;
12155;SDS011;6141;49.092;8.516;2022-10-16T23:39:11;6.90;;;1.60;;
12155;SDS011;6141;49.092;8.516;2022-10-16T23:41:40;12.77;;;1.97;;
12155;SDS011;6141;49.092;8.516;2022-10-16T23:44:16;4.57;;;1.60;;
12155;SDS011;6141;49.092;8.516;2022-10-16T23:46:56;7.50;;;1.70;;
12155;SDS011;6141;49.092;8.516;2022-10-16T23:49:34;9.90;;;2.00;;
12155;SDS011;6141;49.092;8.516;2022-10-16T23:52:06;9.33;;;1.90;;
12155;SDS011;6141;49.092;8.516;2022-10-16T23:54:45;9.20;;;1.93;;
12155;SDS011;6141;49.092;8.516;2022-10-16T23:57:17;1.97;;;1.00;;
12155;SDS011;6141;49.092;8.516;2022-10-16T23:59:48;5.03;;;1.27;;
